Houari Boumediene Airport

DAAG · Algiers, Algieria

Historia METAR DAAG · Houari Boumediene Airport

Poniżej widzisz METAR-y z ostatnich kilku dni. Wybierz rok, aby przeglądać starsze METAR-y, począwszy od roku 2007.

24 maja 2024

Czas Kod Pogoda Temp. Widoczność Sufit Wiatr METAR/SPECI
17:00
V
33 °C 10 km+ - 050° 050° 13 kt METAR DAAG 241600Z 05013KT 9999 FEW030 33/12 Q1010
16:30
V
34 °C 10 km+ - 060° 060° 12 kt METAR DAAG 241530Z 06012KT 040V110 9999 FEW030 34/11 Q1010
16:00
V
35 °C 10 km+ - 080° 080° 10 kt METAR DAAG 241500Z 08010KT 050V110 9999 FEW030 SCT200 35/11 Q1010
15:30
V
34 °C 10 km+ - 090° 090° 11 kt METAR DAAG 241430Z 09011KT 9999 FEW030 SCT200 34/11 Q1011
15:00
V
34 °C 10 km+ - 080° 080° 12 kt METAR DAAG 241400Z 08012KT 050V110 CAVOK 34/10 Q1011
14:30
V
34 °C 10 km+ - 110° 110° 11 kt METAR DAAG 241330Z 11011KT 080V150 CAVOK 34/11 Q1012
14:00
V
34 °C 10 km+ - 130° 130° 13 kt METAR DAAG 241300Z 13013KT 100V160 CAVOK 34/11 Q1012
13:30
V
33 °C 10 km+ - 120° 120° 12 kt METAR DAAG 241230Z 12012KT 080V160 9999 FEW026 SCT100 33/11 Q1013
13:00
V
32 °C 10 km+ - 130° 130° 10 kt METAR DAAG 241200Z 13010KT 090V160 9999 FEW026 SCT100 32/11 Q1013
12:30
V
31 °C 10 km+ 10.000 ft 120° 120° 9 kt METAR DAAG 241130Z 12009KT 090V150 9999 FEW026 FEW030CB BKN100 31/13 Q1013
12:00
V
29 °C 10 km+ 10.000 ft 140° 140° 5 kt METAR DAAG 241100Z 14005KT 110V170 9999 FEW026 FEW030CB BKN100 29/12 Q1014
11:30
V
29 °C 10 km+ 10.000 ft 150° 150° 7 kt METAR DAAG 241030Z 15007KT 9999 FEW026 FEW030CB BKN100 29/13 Q1014
11:00
V
28 °C 10 km+ 10.000 ft 140° 140° 6 kt METAR DAAG 241000Z 14006KT 9999 FEW026 FEW030CB BKN100 28/14 Q1015
10:30
V
28 °C 10 km+ 10.000 ft 070° 070° 7 kt METAR DAAG 240930Z 07007KT 040V110 9999 FEW023 FEW026CB BKN100 28/13 Q1015
10:00
V
25 °C 10 km+ 10.000 ft 010° 010° 9 kt METAR DAAG 240900Z 01009KT 330V040 9999 FEW023 FEW026CB BKN100 25/14 Q1015
09:30
V
25 °C 10 km+ 10.000 ft 060° 060° 5 kt METAR DAAG 240830Z 06005KT 9999 -RA FEW023 FEW026CB BKN100 25/13 Q1015
09:00
V
23 °C 10 km+ 10.000 ft 150° 150° 6 kt METAR DAAG 240800Z 15006KT 9999 FEW023 FEW026CB SCT040 BKN100 23/15 Q1015
08:30
V
24 °C 10 km+ 10.000 ft 280° 280° 5 kt METAR DAAG 240730Z 28005KT 240V320 9999 FEW023 FEW026CB SCT040 BKN100 24/14 Q1014
08:00
V
24 °C 10 km+ - 280° 280° 6 kt METAR DAAG 240700Z 28006KT 9999 FEW023 FEW026CB SCT040 24/13 Q1014
07:30
V
24 °C 10 km+ 10.000 ft 260° 260° 7 kt METAR DAAG 240630Z 26007KT 210V290 9999 FEW023 FEW026CB BKN100 24/13 Q1014
07:00
V
23 °C 10 km+ 10.000 ft 190° 190° 8 kt METAR DAAG 240600Z 19008KT 160V220 9999 FEW023 FEW026CB BKN100 23/14 Q1013
06:30
V
22 °C 10 km+ 10.000 ft 140° 140° 3 kt METAR DAAG 240530Z 14003KT 110V190 9999 FEW023 FEW026CB BKN100 22/15 Q1013
06:00
V
22 °C 10 km+ 10.000 ft Var Var 2 kt METAR DAAG 240500Z VRB02KT 9999 FEW023 FEW026CB BKN100 22/15 Q1014
05:30
V
21 °C 10 km+ 10.000 ft 190° 190° 6 kt METAR DAAG 240430Z 19006KT 9999 FEW023 FEW026CB BKN100 21/15 Q1013
05:00
V
22 °C 10 km+ 12.000 ft 090° 090° 6 kt METAR DAAG 240400Z 09006KT 040V100 9999 FEW023 FEW026CB BKN120 22/15 Q1013
04:30
V
23 °C 10 km+ 12.000 ft 360° 360° 4 kt METAR DAAG 240330Z 36004KT 300V060 9999 FEW023 FEW026CB BKN120 23/15 Q1014
04:00
V
23 °C 10 km+ 12.000 ft 280° 280° 4 kt METAR DAAG 240300Z 28004KT 160V330 9999 FEW023 FEW026CB BKN120 23/14 Q1013
03:30
V
22 °C 10 km+ 12.000 ft 270° 270° 7 kt METAR DAAG 240230Z 27007KT 220V300 9999 FEW023 FEW026CB BKN120 22/15 Q1013
02:30
V
21 °C 10 km+ 11.000 ft Var Var 2 kt METAR DAAG 240130Z VRB02KT 9999 FEW023 FEW026CB BKN110 21/16 Q1014
02:00
V
22 °C 10 km+ 11.000 ft 350° 350° 5 kt METAR DAAG 240100Z 35005KT 9999 FEW023 FEW026CB BKN110 22/16 Q1014
00:30
V
22 °C 10 km+ 11.000 ft 330° 330° 9 kt METAR DAAG 232330Z 33009KT 9999 FEW023 FEW026CB BKN110 22/16 Q1014
00:00
V
21 °C 10 km+ 10.000 ft 130° 130° 7 kt METAR DAAG 232300Z 13007KT 090V150 9999 FEW023 FEW026CB BKN100 21/17 Q1013

23 maja 2024

Czas Kod Pogoda Temp. Widoczność Sufit Wiatr METAR/SPECI
23:30
V
20 °C 10 km+ 10.000 ft 140° 140° 10 kt METAR DAAG 232230Z 14010KT 9999 FEW023 FEW026CB BKN100 20/17 Q1013
23:00
V
20 °C 10 km+ 10.000 ft 110° 110° 7 kt METAR DAAG 232200Z 11007KT 9999 FEW023 FEW026CB BKN100 20/17 Q1014
22:30
V
21 °C 10 km+ 10.000 ft 050° 050° 3 kt METAR DAAG 232130Z 05003KT 360V090 9999 FEW023 FEW026CB BKN100 21/17 Q1015
22:00
V
20 °C 10 km+ 8.000 ft 260° 260° 3 kt METAR DAAG 232100Z 26003KT 170V320 9999 FEW023 FEW026CB BKN080 20/17 Q1015
21:30
V
21 °C 10 km+ 10.000 ft 010° 010° 3 kt METAR DAAG 232030Z 01003KT 340V040 9999 FEW023 FEW026CB BKN100 21/17 Q1015
21:00
V
21 °C 10 km+ 10.000 ft 010° 010° 4 kt METAR DAAG 232000Z 01004KT 330V030 9999 FEW023 FEW026CB BKN100 21/17 Q1014
20:30
V
20 °C 10 km+ 10.000 ft 100° 100° 7 kt METAR DAAG 231930Z 10007KT 9999 FEW023 FEW026CB BKN100 20/17 Q1014
20:00
V
21 °C 10 km+ 10.000 ft 070° 070° 7 kt METAR DAAG 231900Z 07007KT 050V110 9999 FEW023 FEW026CB BKN100 21/16 Q1015
19:30
V
21 °C 10 km+ 10.000 ft 080° 080° 8 kt METAR DAAG 231830Z 08008KT 9999 FEW023 FEW026CB BKN100 21/17 Q1015
19:00
V
21 °C 10 km+ 10.000 ft 050° 050° 14 kt METAR DAAG 231800Z 05014KT 9999 FEW023 FEW026CB BKN100 21/17 Q1013
18:30
V
22 °C 10 km+ 10.000 ft 030° 030° 9 kt METAR DAAG 231730Z 03009KT 9999 FEW023 FEW026CB BKN100 22/17 Q1014
18:00
V
22 °C 10 km+ 10.000 ft 060° 060° 6 kt METAR DAAG 231700Z 06006KT 350V090 9999 FEW023 FEW026CB BKN100 22/17 Q1015
17:30
V
22 °C 10 km+ 10.000 ft 060° 060° 13 kt METAR DAAG 231630Z 06013KT 9999 FEW026 FEW030CB BKN100 22/17 Q1014
17:00
V
23 °C 10 km+ 10.000 ft 070° 070° 13 kt METAR DAAG 231600Z 07013KT 9999 FEW026 BKN100 23/17 Q1014
16:30
V
22 °C 10 km+ 10.000 ft 060° 060° 15 kt METAR DAAG 231530Z 06015KT 9999 FEW026 BKN100 22/16 Q1014
16:00
V
23 °C 10 km+ 12.000 ft 060° 060° 16 kt METAR DAAG 231500Z 06016KT 9999 FEW026 BKN120 23/15 Q1014
15:30
V
24 °C 10 km+ 12.000 ft 060° 060° 17 kt METAR DAAG 231430Z 06017KT 9999 FEW026 BKN120 24/13 Q1014
15:00
V
24 °C 10 km+ 12.000 ft 060° 060° 14 kt METAR DAAG 231400Z 06014KT 9999 FEW026 BKN120 24/13 Q1015
14:30
V
24 °C 10 km+ 12.000 ft 060° 060° 16 kt METAR DAAG 231330Z 06016KT 9999 FEW026 BKN120 24/13 Q1015
14:00
V
24 °C 10 km+ 12.000 ft 060° 060° 15 kt METAR DAAG 231300Z 06015KT 9999 FEW026 BKN120 24/13 Q1016
13:30
V
24 °C 10 km+ 10.000 ft 060° 060° 17 kt METAR DAAG 231230Z 06017KT 9999 FEW026 BKN100 24/15 Q1016
13:00
V
24 °C 10 km+ 10.000 ft 050° 050° 17 kt METAR DAAG 231200Z 05017KT 9999 FEW026 BKN100 24/15 Q1016
12:30
V
25 °C 10 km+ 10.000 ft 050° 050° 14 kt METAR DAAG 231130Z 05014KT 9999 FEW026 BKN100 25/15 Q1016
12:00
V
25 °C 10 km+ 10.000 ft 050° 050° 12 kt METAR DAAG 231100Z 05012KT 9999 FEW026 BKN100 25/14 Q1016
11:30
V
26 °C 10 km+ 20.000 ft 050° 050° 9 kt METAR DAAG 231030Z 05009KT 010V090 9999 FEW026 BKN200 26/14 Q1016
11:00
V
25 °C 10 km+ 20.000 ft 030° 030° 7 kt METAR DAAG 231000Z 03007KT 360V060 9999 FEW026 BKN200 25/13 Q1017
10:30
V
24 °C 10 km+ - 050° 050° 8 kt METAR DAAG 230930Z 05008KT 010V100 9999 FEW026 SCT100 24/12 Q1016
10:00
V
24 °C 10 km+ - 060° 060° 6 kt METAR DAAG 230900Z 06006KT 010V080 9999 FEW026 SCT100 24/13 Q1016
09:30
V
23 °C 10 km+ - 050° 050° 5 kt METAR DAAG 230830Z 05005KT 360V090 9999 FEW026 23/14 Q1017
09:00
V
23 °C 10 km+ - 020° 020° 3 kt METAR DAAG 230800Z 02003KT 320V090 9999 FEW020 SCT200 23/12 Q1017
08:30
V
21 °C 10 km+ - Var Var 2 kt METAR DAAG 230730Z VRB02KT CAVOK 21/12 Q1017
08:00
V
19 °C 10 km+ - Var Var 2 kt METAR DAAG 230700Z VRB02KT CAVOK 19/12 Q1017
07:30
V
18 °C 10 km+ - Var Var 2 kt METAR DAAG 230630Z VRB02KT CAVOK 18/12 Q1016
07:00
V
15 °C 10 km+ - 150° 150° 3 kt METAR DAAG 230600Z 15003KT CAVOK 15/13 Q1016
06:30
V
14 °C 10 km+ - 120° 120° 3 kt METAR DAAG 230530Z 12003KT CAVOK 14/11 Q1016
06:00
V
13 °C 10 km+ - Var Var 1 kt METAR DAAG 230500Z VRB01KT CAVOK 13/11 Q1016
05:30
V
13 °C 10 km+ - 240° 240° 2 kt METAR DAAG 230430Z 24002KT CAVOK 13/11 Q1016
05:00
V
12 °C 10 km+ - 200° 200° 4 kt METAR DAAG 230400Z 20004KT CAVOK 12/10 Q1015
04:30
V
14 °C 10 km+ - 230° 230° 2 kt METAR DAAG 230330Z 23002KT CAVOK 14/11 Q1015
04:00
V
13 °C 10 km+ - 230° 230° 1 kt METAR DAAG 230300Z 23001KT CAVOK 13/11 Q1015
03:30
V
15 °C 10 km+ - Var Var 2 kt METAR DAAG 230230Z VRB02KT CAVOK 15/11 Q1015
03:00
V
14 °C 10 km+ - 070° 070° 6 kt METAR DAAG 230200Z 07006KT CAVOK 14/11 Q1015
02:30
V
16 °C 10 km+ - 030° 030° 3 kt METAR DAAG 230130Z 03003KT CAVOK 16/11 Q1015
02:00
V
18 °C 10 km+ - 040° 040° 4 kt METAR DAAG 230100Z 04004KT CAVOK 18/12 Q1016
01:30
V
14 °C 10 km+ - 110° 110° 3 kt METAR DAAG 230030Z 11003KT 080V140 CAVOK 14/11 Q1016
01:00
V
14 °C 10 km+ - 070° 070° 4 kt METAR DAAG 230000Z 07004KT CAVOK 14/12 Q1016
00:30
V
15 °C 10 km+ - 060° 060° 4 kt METAR DAAG 222330Z 06004KT CAVOK 15/12 Q1017
00:00
V
15 °C 10 km+ - 060° 060° 3 kt METAR DAAG 222300Z 06003KT CAVOK 15/12 Q1017

22 maja 2024

Czas Kod Pogoda Temp. Widoczność Sufit Wiatr METAR/SPECI
23:30
V
16 °C 10 km+ - 050° 050° 4 kt METAR DAAG 222230Z 05004KT CAVOK 16/13 Q1018
23:00
V
19 °C 10 km+ - 040° 040° 3 kt METAR DAAG 222200Z 04003KT 020V080 CAVOK 19/14 Q1018
22:30
V
16 °C 10 km+ - 070° 070° 2 kt METAR DAAG 222130Z 07002KT CAVOK 16/13 Q1018
22:00
V
18 °C 10 km+ - 030° 030° 4 kt METAR DAAG 222100Z 03004KT 9999 FEW023 18/13 Q1018
21:30
V
20 °C 10 km+ - 020° 020° 4 kt METAR DAAG 222030Z 02004KT 9999 FEW023 20/14 Q1018
21:00
V
20 °C 10 km+ - 040° 040° 5 kt METAR DAAG 222000Z 04005KT 9999 FEW023 20/15 Q1018
20:30
V
20 °C 10 km+ - 010° 010° 4 kt METAR DAAG 221930Z 01004KT 9999 FEW023 20/15 Q1018
20:00
V
20 °C 10 km+ - 010° 010° 5 kt METAR DAAG 221900Z 01005KT CAVOK 20/15 Q1017
19:30
V
21 °C 10 km+ - 020° 020° 5 kt METAR DAAG 221830Z 02005KT CAVOK 21/15 Q1017
19:00
V
21 °C 10 km+ - 030° 030° 6 kt METAR DAAG 221800Z 03006KT CAVOK 21/15 Q1017
18:30
V
22 °C 10 km+ - 040° 040° 6 kt METAR DAAG 221730Z 04006KT 360V070 CAVOK 22/15 Q1017
18:00
V
23 °C 10 km+ - 030° 030° 7 kt METAR DAAG 221700Z 03007KT CAVOK 23/14 Q1017
17:30
V
23 °C 10 km+ - 050° 050° 7 kt METAR DAAG 221630Z 05007KT 030V090 CAVOK 23/15 Q1017
17:00
V
24 °C 10 km+ - 360° 360° 7 kt METAR DAAG 221600Z 36007KT 330V060 CAVOK 24/13 Q1017
16:30
V
24 °C 10 km+ - 010° 010° 7 kt METAR DAAG 221530Z 01007KT 330V060 CAVOK 24/13 Q1017
16:00
V
23 °C 10 km+ - 360° 360° 9 kt METAR DAAG 221500Z 36009KT 320V040 CAVOK 23/13 Q1017
15:30
V
24 °C 10 km+ - 010° 010° 7 kt METAR DAAG 221430Z 01007KT 330V040 CAVOK 24/14 Q1018
15:00
V
23 °C 10 km+ - 350° 350° 9 kt METAR DAAG 221400Z 35009KT 300V020 CAVOK 23/13 Q1018
14:30
V
23 °C 10 km+ - 340° 340° 9 kt METAR DAAG 221330Z 34009KT 310V020 CAVOK 23/12 Q1018
14:00
V
23 °C 10 km+ - 340° 340° 11 kt METAR DAAG 221300Z 34011KT 310V030 CAVOK 23/12 Q1018
13:30
V
23 °C 10 km+ - 010° 010° 12 kt METAR DAAG 221230Z 01012KT 330V030 CAVOK 23/12 Q1018
13:00
V
24 °C 10 km+ - 350° 350° 14 - 24 kt METAR DAAG 221200Z 35014G24KT CAVOK 24/11 Q1018
12:30
V
24 °C 10 km+ - 350° 350° 13 kt METAR DAAG 221130Z 35013KT CAVOK 24/10 Q1018
12:00
V
25 °C 10 km+ - 350° 350° 10 kt METAR DAAG 221100Z 35010KT 320V020 CAVOK 25/08 Q1018
11:30
V
25 °C 10 km+ - 340° 340° 9 kt METAR DAAG 221030Z 34009KT 320V020 CAVOK 25/07 Q1018
11:00
V
25 °C 10 km+ - 350° 350° 10 kt METAR DAAG 221000Z 35010KT 320V030 CAVOK 25/07 Q1018
10:30
V
25 °C 10 km+ - Var Var 6 kt METAR DAAG 220930Z VRB06KT CAVOK 25/06 Q1018
10:00
V
25 °C 10 km+ - 280° 280° 8 kt METAR DAAG 220900Z 28008KT 200V320 CAVOK 25/06 Q1018
09:30
V
24 °C 10 km+ - 260° 260° 8 kt METAR DAAG 220830Z 26008KT 9999 FEW046 24/07 Q1018
09:00
V
23 °C 10 km+ - 240° 240° 7 kt METAR DAAG 220800Z 24007KT 200V280 9999 FEW046 23/08 Q1018
08:30
V
21 °C 10 km+ - 230° 230° 4 kt METAR DAAG 220730Z 23004KT 190V270 9999 FEW046 21/09 Q1018
08:00
V
19 °C 10 km+ - 210° 210° 4 kt METAR DAAG 220700Z 21004KT 170V240 9999 FEW046 19/09 Q1018
07:30
V
18 °C 10 km+ - Var Var 1 kt METAR DAAG 220630Z VRB01KT 9999 FEW043 18/10 Q1018
07:00
V
15 °C 10 km+ - Var Var 2 kt METAR DAAG 220600Z VRB02KT 9999 FEW043 15/11 Q1018
Zgłoś zmianę